Zakirovskiy Airport

Jump to: basic info | weather | comments

Related pages: nearby airports | nearby navaids

Basic information (top)

Location: lon 43.448002, lat 77.049599, elev 2,038 ft / 621 m msl
Status: small_airport

Weather (top)

Current conditions for Almaty Airport 6nm (11km) S (rec'd 2014/04/24 21:00Z):

UAAA 242100Z 13003MPS 9999 NSC 06/01 Q1005 88CLRD65 NOSIG

Airport forecast for Almaty Airport 6nm (11km) S (rec'd 2014/04/24 18:18Z):

TAF TAF UAAA 241700Z 2418/2518 16005MPS 5000 BR FU BKN100 TX18/2508Z TN03/2501Z 
      TEMPO 2418/2422 2000 
      BECMG 2504/2505 22007MPS BKN050CB BKN100 
      TEMPO 2504/2515 VRB17MPS 3000 TSRA SQ BKN010CB OVC100 
      TEMPO 2515/2518 VRB15MPS 3000 TSRA SQ BKN010CB OVC100

Latest comments (top)

No comments yet for Zakirovskiy Airport

More... (top)

See also NOTAMs and nearby airports and navaids, or visit the Zakirovskiy Airport page at the main OurAirports website..